sensor_id;sensor_type;location;lat;lon;timestamp;pressure;altitude;pressure_sealevel;temperature;humidity
61478;BME280;47345;52.334;10.392;2023-06-04T17:18:20;101301.13;;;30.84;20.99
61478;BME280;47345;52.334;10.392;2023-06-04T17:20:51;101299.55;;;31.05;21.11
61478;BME280;47345;52.334;10.392;2023-06-04T17:23:24;101301.02;;;31.36;20.92
61478;BME280;47345;52.334;10.392;2023-06-04T17:25:55;101300.20;;;31.71;20.50
61478;BME280;47345;52.334;10.392;2023-06-04T17:28:26;101293.67;;;31.97;19.57
61478;BME280;47345;52.334;10.392;2023-06-04T17:30:57;101296.96;;;32.12;20.44
61478;BME280;47345;52.334;10.392;2023-06-04T17:33:28;101295.16;;;32.33;19.94
61478;BME280;47345;52.334;10.392;2023-06-04T17:36:03;101295.73;;;32.29;19.83
61478;BME280;47345;52.334;10.392;2023-06-04T17:38:34;101294.96;;;32.37;19.71
61478;BME280;47345;52.334;10.392;2023-06-04T17:41:04;101296.27;;;32.64;20.23
61478;BME280;47345;52.334;10.392;2023-06-04T17:43:35;101294.77;;;33.00;19.83
61478;BME280;47345;52.334;10.392;2023-06-04T17:46:08;101295.21;;;33.23;19.52
61478;BME280;47345;52.334;10.392;2023-06-04T17:48:39;101298.45;;;33.46;19.01
61478;BME280;47345;52.334;10.392;2023-06-04T17:51:11;101298.55;;;33.51;18.68
61478;BME280;47345;52.334;10.392;2023-06-04T17:53:42;101296.84;;;33.58;18.64
61478;BME280;47345;52.334;10.392;2023-06-04T17:56:13;101299.20;;;33.65;18.71
61478;BME280;47345;52.334;10.392;2023-06-04T17:58:44;101298.51;;;33.61;18.49
61478;BME280;47345;52.334;10.392;2023-06-04T18:01:14;101294.27;;;33.53;19.03
61478;BME280;47345;52.334;10.392;2023-06-04T18:03:45;101296.60;;;33.53;19.06
61478;BME280;47345;52.334;10.392;2023-06-04T18:06:19;101295.08;;;33.51;18.54
61478;BME280;47345;52.334;10.392;2023-06-04T18:08:50;101297.98;;;33.48;18.58
61478;BME280;47345;52.334;10.392;2023-06-04T18:11:20;101300.84;;;33.49;18.81
61478;BME280;47345;52.334;10.392;2023-06-04T18:13:51;101297.52;;;33.54;19.26
61478;BME280;47345;52.334;10.392;2023-06-04T18:16:22;101299.91;;;33.55;19.56
61478;BME280;47345;52.334;10.392;2023-06-04T18:18:52;101302.86;;;33.51;19.66
61478;BME280;47345;52.334;10.392;2023-06-04T18:21:23;101296.80;;;33.44;18.82
61478;BME280;47345;52.334;10.392;2023-06-04T18:23:54;101301.33;;;33.31;18.87
61478;BME280;47345;52.334;10.392;2023-06-04T18:26:26;101297.67;;;33.06;19.88
61478;BME280;47345;52.334;10.392;2023-06-04T18:28:57;101299.52;;;32.90;19.71
61478;BME280;47345;52.334;10.392;2023-06-04T18:31:27;101301.17;;;32.78;20.20
61478;BME280;47345;52.334;10.392;2023-06-04T18:33:58;101304.80;;;32.65;20.46
61478;BME280;47345;52.334;10.392;2023-06-04T18:36:31;101302.03;;;32.46;20.50
61478;BME280;47345;52.334;10.392;2023-06-04T18:39:01;101306.43;;;32.24;20.86
61478;BME280;47345;52.334;10.392;2023-06-04T18:41:33;101303.20;;;32.04;20.92
61478;BME280;47345;52.334;10.392;2023-06-04T18:44:04;101306.66;;;31.64;21.94
61478;BME280;47345;52.334;10.392;2023-06-04T18:46:35;101309.39;;;31.03;22.27
61478;BME280;47345;52.334;10.392;2023-06-04T18:49:06;101308.89;;;30.24;22.21
61478;BME280;47345;52.334;10.392;2023-06-04T18:51:38;101305.42;;;29.39;22.61
61478;BME280;47345;52.334;10.392;2023-06-04T18:54:09;101303.98;;;28.55;23.25
61478;BME280;47345;52.334;10.392;2023-06-04T18:56:40;101306.05;;;27.72;23.91
61478;BME280;47345;52.334;10.392;2023-06-04T18:59:13;101304.83;;;26.94;24.57
61478;BME280;47345;52.334;10.392;2023-06-04T19:01:45;101308.48;;;26.22;25.44
61478;BME280;47345;52.334;10.392;2023-06-04T19:04:16;101311.89;;;25.62;26.32
61478;BME280;47345;52.334;10.392;2023-06-04T19:06:47;101310.76;;;25.06;27.15
61478;BME280;47345;52.334;10.392;2023-06-04T19:09:18;101312.27;;;24.50;27.81
61478;BME280;47345;52.334;10.392;2023-06-04T19:11:49;101312.88;;;24.00;28.45
61478;BME280;47345;52.334;10.392;2023-06-04T19:14:19;101316.92;;;23.57;28.73
61478;BME280;47345;52.334;10.392;2023-06-04T19:16:50;101323.08;;;23.25;28.89
61478;BME280;47345;52.334;10.392;2023-06-04T19:19:21;101326.01;;;22.98;29.00
61478;BME280;47345;52.334;10.392;2023-06-04T19:21:52;101325.30;;;22.72;29.87
61478;BME280;47345;52.334;10.392;2023-06-04T19:24:22;101323.55;;;22.47;30.37
61478;BME280;47345;52.334;10.392;2023-06-04T19:26:53;101326.62;;;22.23;30.83
61478;BME280;47345;52.334;10.392;2023-06-04T19:29:24;101328.52;;;22.01;31.11
61478;BME280;47345;52.334;10.392;2023-06-04T19:31:55;101331.23;;;21.79;31.41
61478;BME280;47345;52.334;10.392;2023-06-04T19:34:26;101334.69;;;21.57;31.68
61478;BME280;47345;52.334;10.392;2023-06-04T19:36:57;101332.52;;;21.35;32.23
61478;BME280;47345;52.334;10.392;2023-06-04T19:39:28;101337.75;;;21.16;32.78
61478;BME280;47345;52.334;10.392;2023-06-04T19:41:59;101338.85;;;20.96;33.14
61478;BME280;47345;52.334;10.392;2023-06-04T19:44:29;101343.17;;;20.76;33.81
61478;BME280;47345;52.334;10.392;2023-06-04T19:47:00;101344.78;;;20.56;34.33
61478;BME280;47345;52.334;10.392;2023-06-04T19:49:33;101351.98;;;20.39;34.39
61478;BME280;47345;52.334;10.392;2023-06-04T19:52:04;101353.11;;;20.23;34.44
61478;BME280;47345;52.334;10.392;2023-06-04T19:54:35;101355.84;;;20.08;35.05
61478;BME280;47345;52.334;10.392;2023-06-04T19:57:06;101353.19;;;19.92;35.92
61478;BME280;47345;52.334;10.392;2023-06-04T19:59:40;101358.65;;;19.77;35.98
61478;BME280;47345;52.334;10.392;2023-06-04T20:02:11;101359.23;;;19.64;35.91
61478;BME280;47345;52.334;10.392;2023-06-04T20:04:41;101358.73;;;19.53;36.30
61478;BME280;47345;52.334;10.392;2023-06-04T20:07:12;101359.14;;;19.41;36.55
61478;BME280;47345;52.334;10.392;2023-06-04T20:09:43;101360.27;;;19.29;36.97
61478;BME280;47345;52.334;10.392;2023-06-04T20:12:14;101361.29;;;19.17;37.56
61478;BME280;47345;52.334;10.392;2023-06-04T20:14:45;101365.20;;;19.06;38.47
61478;BME280;47345;52.334;10.392;2023-06-04T20:17:16;101367.38;;;18.93;40.30
61478;BME280;47345;52.334;10.392;2023-06-04T20:19:47;101369.85;;;18.77;40.24
61478;BME280;47345;52.334;10.392;2023-06-04T20:22:17;101372.35;;;18.64;40.18
61478;BME280;47345;52.334;10.392;2023-06-04T20:24:48;101373.94;;;18.52;40.52
61478;BME280;47345;52.334;10.392;2023-06-04T20:27:19;101372.17;;;18.41;40.69
61478;BME280;47345;52.334;10.392;2023-06-04T20:29:49;101378.81;;;18.33;41.02
61478;BME280;47345;52.334;10.392;2023-06-04T20:32:20;101380.77;;;18.21;41.79
61478;BME280;47345;52.334;10.392;2023-06-04T20:34:53;101385.84;;;18.08;42.41
61478;BME280;47345;52.334;10.392;2023-06-04T20:37:23;101389.44;;;17.96;42.61
61478;BME280;47345;52.334;10.392;2023-06-04T20:39:54;101390.23;;;17.85;42.81
61478;BME280;47345;52.334;10.392;2023-06-04T20:42:25;101392.55;;;17.71;43.42
61478;BME280;47345;52.334;10.392;2023-06-04T20:44:55;101391.38;;;17.55;44.25
61478;BME280;47345;52.334;10.392;2023-06-04T20:47:26;101389.73;;;17.37;44.95
61478;BME280;47345;52.334;10.392;2023-06-04T20:49:57;101393.60;;;17.24;45.40
61478;BME280;47345;52.334;10.392;2023-06-04T20:52:28;101398.63;;;17.10;46.06
61478;BME280;47345;52.334;10.392;2023-06-04T20:54:58;101397.33;;;16.96;46.73
61478;BME280;47345;52.334;10.392;2023-06-04T20:57:29;101397.16;;;16.83;47.17
61478;BME280;47345;52.334;10.392;2023-06-04T20:59:59;101399.63;;;16.70;47.63
61478;BME280;47345;52.334;10.392;2023-06-04T21:02:31;101399.04;;;16.59;47.56
61478;BME280;47345;52.334;10.392;2023-06-04T21:05:02;101398.16;;;16.50;47.86
61478;BME280;47345;52.334;10.392;2023-06-04T21:07:33;101395.44;;;16.44;47.88
61478;BME280;47345;52.334;10.392;2023-06-04T21:10:05;101396.66;;;16.36;47.99
61478;BME280;47345;52.334;10.392;2023-06-04T21:12:36;101395.52;;;16.26;48.10
61478;BME280;47345;52.334;10.392;2023-06-04T21:15:09;101396.13;;;16.18;47.82
61478;BME280;47345;52.334;10.392;2023-06-04T21:17:39;101396.14;;;16.12;47.24
61478;BME280;47345;52.334;10.392;2023-06-04T21:20:12;101392.17;;;16.05;47.69
61478;BME280;47345;52.334;10.392;2023-06-04T21:22:42;101394.27;;;15.99;47.81
61478;BME280;47345;52.334;10.392;2023-06-04T21:25:13;101391.21;;;15.95;47.95
61478;BME280;47345;52.334;10.392;2023-06-04T21:27:44;101391.81;;;15.91;48.05
61478;BME280;47345;52.334;10.392;2023-06-04T21:30:18;101390.29;;;15.82;47.82
61478;BME280;47345;52.334;10.392;2023-06-04T21:32:49;101390.02;;;15.74;47.87
61478;BME280;47345;52.334;10.392;2023-06-04T21:35:20;101389.29;;;15.68;48.06
61478;BME280;47345;52.334;10.392;2023-06-04T21:37:51;101396.60;;;15.60;48.33
61478;BME280;47345;52.334;10.392;2023-06-04T21:40:22;101397.13;;;15.53;48.65
61478;BME280;47345;52.334;10.392;2023-06-04T21:42:53;101397.36;;;15.44;48.81
61478;BME280;47345;52.334;10.392;2023-06-04T21:45:24;101397.81;;;15.36;49.00
61478;BME280;47345;52.334;10.392;2023-06-04T21:47:55;101399.20;;;15.26;49.32
61478;BME280;47345;52.334;10.392;2023-06-04T21:50:26;101403.64;;;15.21;49.85
61478;BME280;47345;52.334;10.392;2023-06-04T21:52:57;101404.53;;;15.14;49.83
61478;BME280;47345;52.334;10.392;2023-06-04T21:55:29;101411.26;;;15.08;50.00
61478;BME280;47345;52.334;10.392;2023-06-04T21:57:59;101413.60;;;15.00;50.52
61478;BME280;47345;52.334;10.392;2023-06-04T22:00:30;101412.58;;;14.83;51.31
61478;BME280;47345;52.334;10.392;2023-06-04T22:03:01;101413.23;;;14.72;51.57
61478;BME280;47345;52.334;10.392;2023-06-04T22:05:32;101412.05;;;14.64;51.20
61478;BME280;47345;52.334;10.392;2023-06-04T22:08:03;101412.92;;;14.56;51.60
61478;BME280;47345;52.334;10.392;2023-06-04T22:10:34;101414.27;;;14.47;51.64
61478;BME280;47345;52.334;10.392;2023-06-04T22:13:05;101416.06;;;14.41;51.81
61478;BME280;47345;52.334;10.392;2023-06-04T22:15:36;101422.49;;;14.30;52.28
61478;BME280;47345;52.334;10.392;2023-06-04T22:18:08;101424.48;;;14.17;52.45
61478;BME280;47345;52.334;10.392;2023-06-04T22:20:40;101423.27;;;14.04;52.70
61478;BME280;47345;52.334;10.392;2023-06-04T22:23:10;101422.56;;;13.93;53.20
61478;BME280;47345;52.334;10.392;2023-06-04T22:25:41;101425.60;;;13.84;53.76
61478;BME280;47345;52.334;10.392;2023-06-04T22:28:12;101430.23;;;13.80;54.07
61478;BME280;47345;52.334;10.392;2023-06-04T22:30:42;101425.96;;;13.75;54.14
61478;BME280;47345;52.334;10.392;2023-06-04T22:33:13;101430.83;;;13.70;54.38
61478;BME280;47345;52.334;10.392;2023-06-04T22:35:44;101430.73;;;13.67;54.66
61478;BME280;47345;52.334;10.392;2023-06-04T22:38:14;101429.85;;;13.63;54.86
61478;BME280;47345;52.334;10.392;2023-06-04T22:40:45;101428.66;;;13.58;55.24
61478;BME280;47345;52.334;10.392;2023-06-04T22:43:16;101426.55;;;13.52;55.64
61478;BME280;47345;52.334;10.392;2023-06-04T22:45:47;101426.20;;;13.47;55.94
61478;BME280;47345;52.334;10.392;2023-06-04T22:48:18;101425.23;;;13.43;56.21
61478;BME280;47345;52.334;10.392;2023-06-04T22:50:49;101423.21;;;13.41;56.44
61478;BME280;47345;52.334;10.392;2023-06-04T22:53:21;101427.18;;;13.40;56.52
61478;BME280;47345;52.334;10.392;2023-06-04T22:55:52;101430.59;;;13.39;56.62
61478;BME280;47345;52.334;10.392;2023-06-04T22:58:23;101434.40;;;13.39;56.65
61478;BME280;47345;52.334;10.392;2023-06-04T23:00:53;101432.08;;;13.41;56.61
61478;BME280;47345;52.334;10.392;2023-06-04T23:03:25;101429.48;;;13.42;56.53
61478;BME280;47345;52.334;10.392;2023-06-04T23:05:58;101431.06;;;13.44;56.63
61478;BME280;47345;52.334;10.392;2023-06-04T23:08:29;101431.70;;;13.47;56.43
61478;BME280;47345;52.334;10.392;2023-06-04T23:10:59;101439.48;;;13.51;56.30
61478;BME280;47345;52.334;10.392;2023-06-04T23:13:30;101438.48;;;13.53;56.36
61478;BME280;47345;52.334;10.392;2023-06-04T23:16:01;101441.00;;;13.52;56.28
61478;BME280;47345;52.334;10.392;2023-06-04T23:18:32;101441.52;;;13.50;56.47
61478;BME280;47345;52.334;10.392;2023-06-04T23:21:03;101441.67;;;13.47;56.46
61478;BME280;47345;52.334;10.392;2023-06-04T23:23:34;101443.86;;;13.44;56.53
61478;BME280;47345;52.334;10.392;2023-06-04T23:26:05;101445.08;;;13.41;56.58
61478;BME280;47345;52.334;10.392;2023-06-04T23:28:36;101448.90;;;13.37;56.63
61478;BME280;47345;52.334;10.392;2023-06-04T23:31:06;101447.75;;;13.34;56.80
61478;BME280;47345;52.334;10.392;2023-06-04T23:33:37;101448.71;;;13.33;56.86
61478;BME280;47345;52.334;10.392;2023-06-04T23:36:08;101447.44;;;13.32;56.84
61478;BME280;47345;52.334;10.392;2023-06-04T23:38:39;101444.56;;;13.31;56.94
61478;BME280;47345;52.334;10.392;2023-06-04T23:41:10;101444.20;;;13.32;56.91
61478;BME280;47345;52.334;10.392;2023-06-04T23:43:41;101444.36;;;13.34;57.04
61478;BME280;47345;52.334;10.392;2023-06-04T23:46:12;101442.73;;;13.35;57.08
61478;BME280;47345;52.334;10.392;2023-06-04T23:48:43;101440.10;;;13.35;57.06
61478;BME280;47345;52.334;10.392;2023-06-04T23:51:14;101441.96;;;13.38;57.14
61478;BME280;47345;52.334;10.392;2023-06-04T23:53:45;101442.85;;;13.38;57.22
61478;BME280;47345;52.334;10.392;2023-06-04T23:56:16;101442.05;;;13.37;57.23
61478;BME280;47345;52.334;10.392;2023-06-04T23:58:48;101447.21;;;13.38;57.26
